sensor_id;sensor_type;location;lat;lon;timestamp;temperature;humidity
14771;DHT22;7477;45.222;5.688;2023-07-31T00:01:06;20.30;86.90
14771;DHT22;7477;45.222;5.688;2023-07-31T00:04:25;20.40;86.20
14771;DHT22;7477;45.222;5.688;2023-07-31T00:07:44;20.30;86.70
14771;DHT22;7477;45.222;5.688;2023-07-31T00:11:03;20.20;87.00
14771;DHT22;7477;45.222;5.688;2023-07-31T00:14:23;20.30;86.80
14771;DHT22;7477;45.222;5.688;2023-07-31T00:17:43;20.10;87.90
14771;DHT22;7477;45.222;5.688;2023-07-31T00:21:02;20.10;87.50
14771;DHT22;7477;45.222;5.688;2023-07-31T00:24:21;20.10;87.20
14771;DHT22;7477;45.222;5.688;2023-07-31T00:27:40;20.20;87.40
14771;DHT22;7477;45.222;5.688;2023-07-31T00:31:03;19.90;88.80
14771;DHT22;7477;45.222;5.688;2023-07-31T00:34:22;19.90;88.40
14771;DHT22;7477;45.222;5.688;2023-07-31T00:37:41;19.70;88.50
14771;DHT22;7477;45.222;5.688;2023-07-31T00:41:00;19.90;88.30
14771;DHT22;7477;45.222;5.688;2023-07-31T00:44:19;19.80;88.30
14771;DHT22;7477;45.222;5.688;2023-07-31T00:47:39;20.00;88.50
14771;DHT22;7477;45.222;5.688;2023-07-31T00:50:58;19.70;89.30
14771;DHT22;7477;45.222;5.688;2023-07-31T00:54:18;20.00;88.50
14771;DHT22;7477;45.222;5.688;2023-07-31T00:57:38;19.60;89.30
14771;DHT22;7477;45.222;5.688;2023-07-31T01:01:00;19.50;90.00
14771;DHT22;7477;45.222;5.688;2023-07-31T01:04:20;19.30;90.20
14771;DHT22;7477;45.222;5.688;2023-07-31T01:07:49;19.40;90.10
14771;DHT22;7477;45.222;5.688;2023-07-31T01:11:17;19.30;90.20
14771;DHT22;7477;45.222;5.688;2023-07-31T01:14:38;19.60;90.20
14771;DHT22;7477;45.222;5.688;2023-07-31T01:17:58;19.50;90.00
14771;DHT22;7477;45.222;5.688;2023-07-31T01:32:14;19.30;90.40
14771;DHT22;7477;45.222;5.688;2023-07-31T01:35:37;19.10;90.80
14771;DHT22;7477;45.222;5.688;2023-07-31T01:39:01;19.00;91.40
14771;DHT22;7477;45.222;5.688;2023-07-31T01:42:20;18.90;91.10
14771;DHT22;7477;45.222;5.688;2023-07-31T01:45:39;18.80;91.40
14771;DHT22;7477;45.222;5.688;2023-07-31T01:48:58;18.70;91.70
14771;DHT22;7477;45.222;5.688;2023-07-31T01:52:17;18.60;91.80
14771;DHT22;7477;45.222;5.688;2023-07-31T01:55:36;18.50;92.10
14771;DHT22;7477;45.222;5.688;2023-07-31T01:58:55;19.20;91.90
14771;DHT22;7477;45.222;5.688;2023-07-31T02:02:15;19.00;91.20
14771;DHT22;7477;45.222;5.688;2023-07-31T02:05:34;18.60;92.20
14771;DHT22;7477;45.222;5.688;2023-07-31T02:08:53;18.60;92.40
14771;DHT22;7477;45.222;5.688;2023-07-31T02:12:13;18.50;92.40
14771;DHT22;7477;45.222;5.688;2023-07-31T02:15:33;18.50;92.80
14771;DHT22;7477;45.222;5.688;2023-07-31T02:18:52;18.50;92.40
14771;DHT22;7477;45.222;5.688;2023-07-31T02:22:12;18.40;92.30
14771;DHT22;7477;45.222;5.688;2023-07-31T02:25:31;18.40;92.60
14771;DHT22;7477;45.222;5.688;2023-07-31T02:28:50;18.20;92.90
14771;DHT22;7477;45.222;5.688;2023-07-31T02:32:09;18.00;93.90
14771;DHT22;7477;45.222;5.688;2023-07-31T02:35:28;18.00;93.90
14771;DHT22;7477;45.222;5.688;2023-07-31T02:38:47;17.80;94.10
14771;DHT22;7477;45.222;5.688;2023-07-31T02:42:07;17.80;94.60
14771;DHT22;7477;45.222;5.688;2023-07-31T02:45:26;17.80;94.90
14771;DHT22;7477;45.222;5.688;2023-07-31T02:48:45;17.70;95.10
14771;DHT22;7477;45.222;5.688;2023-07-31T02:52:04;17.70;95.30
14771;DHT22;7477;45.222;5.688;2023-07-31T02:55:24;17.70;95.50
14771;DHT22;7477;45.222;5.688;2023-07-31T02:58:43;17.60;95.60
14771;DHT22;7477;45.222;5.688;2023-07-31T03:02:02;17.60;96.00
14771;DHT22;7477;45.222;5.688;2023-07-31T03:05:22;17.60;96.00
14771;DHT22;7477;45.222;5.688;2023-07-31T03:08:41;17.50;96.20
14771;DHT22;7477;45.222;5.688;2023-07-31T03:12:00;17.50;96.10
14771;DHT22;7477;45.222;5.688;2023-07-31T03:15:19;17.50;96.20
14771;DHT22;7477;45.222;5.688;2023-07-31T03:18:38;17.50;96.00
14771;DHT22;7477;45.222;5.688;2023-07-31T03:21:58;17.60;95.80
14771;DHT22;7477;45.222;5.688;2023-07-31T03:25:17;17.70;95.80
14771;DHT22;7477;45.222;5.688;2023-07-31T03:28:37;17.70;95.80
14771;DHT22;7477;45.222;5.688;2023-07-31T03:31:56;17.50;96.30
14771;DHT22;7477;45.222;5.688;2023-07-31T03:35:15;17.50;96.10
14771;DHT22;7477;45.222;5.688;2023-07-31T03:38:34;17.50;96.00
14771;DHT22;7477;45.222;5.688;2023-07-31T03:41:54;17.40;96.20
14771;DHT22;7477;45.222;5.688;2023-07-31T03:45:13;17.40;96.20
14771;DHT22;7477;45.222;5.688;2023-07-31T03:48:32;17.40;96.10
14771;DHT22;7477;45.222;5.688;2023-07-31T03:51:51;17.30;96.40
14771;DHT22;7477;45.222;5.688;2023-07-31T03:55:10;17.30;96.40
14771;DHT22;7477;45.222;5.688;2023-07-31T03:58:29;17.20;96.80
14771;DHT22;7477;45.222;5.688;2023-07-31T04:01:48;17.20;96.60
14771;DHT22;7477;45.222;5.688;2023-07-31T04:05:07;17.20;97.00
14771;DHT22;7477;45.222;5.688;2023-07-31T04:08:27;17.10;97.30
14771;DHT22;7477;45.222;5.688;2023-07-31T04:11:46;17.10;97.40
14771;DHT22;7477;45.222;5.688;2023-07-31T04:15:06;17.10;98.00
14771;DHT22;7477;45.222;5.688;2023-07-31T04:18:25;17.10;98.20
14771;DHT22;7477;45.222;5.688;2023-07-31T04:21:45;17.10;98.70
14771;DHT22;7477;45.222;5.688;2023-07-31T04:25:04;17.10;99.20
14771;DHT22;7477;45.222;5.688;2023-07-31T04:28:23;17.00;99.40
14771;DHT22;7477;45.222;5.688;2023-07-31T04:31:45;17.00;99.90
14771;DHT22;7477;45.222;5.688;2023-07-31T04:35:04;16.90;99.90
14771;DHT22;7477;45.222;5.688;2023-07-31T04:38:24;16.90;99.90
14771;DHT22;7477;45.222;5.688;2023-07-31T04:41:43;16.90;99.90
14771;DHT22;7477;45.222;5.688;2023-07-31T04:45:03;16.90;99.90
14771;DHT22;7477;45.222;5.688;2023-07-31T04:48:22;16.80;99.90
14771;DHT22;7477;45.222;5.688;2023-07-31T04:51:41;16.80;99.90
14771;DHT22;7477;45.222;5.688;2023-07-31T04:55:00;16.90;99.90
14771;DHT22;7477;45.222;5.688;2023-07-31T04:58:19;16.90;99.90
14771;DHT22;7477;45.222;5.688;2023-07-31T05:01:39;16.90;99.90
14771;DHT22;7477;45.222;5.688;2023-07-31T05:04:58;17.00;99.90
14771;DHT22;7477;45.222;5.688;2023-07-31T05:08:17;16.90;99.90
14771;DHT22;7477;45.222;5.688;2023-07-31T05:11:39;16.90;99.90
14771;DHT22;7477;45.222;5.688;2023-07-31T05:14:59;16.90;99.90
14771;DHT22;7477;45.222;5.688;2023-07-31T05:18:19;16.90;99.90
14771;DHT22;7477;45.222;5.688;2023-07-31T05:21:38;17.00;99.90
14771;DHT22;7477;45.222;5.688;2023-07-31T05:24:57;17.00;99.90
14771;DHT22;7477;45.222;5.688;2023-07-31T05:28:16;17.00;99.90
14771;DHT22;7477;45.222;5.688;2023-07-31T05:31:35;16.90;99.90
14771;DHT22;7477;45.222;5.688;2023-07-31T05:34:54;16.90;99.90
14771;DHT22;7477;45.222;5.688;2023-07-31T05:38:13;17.00;99.90
14771;DHT22;7477;45.222;5.688;2023-07-31T05:41:32;17.00;99.90
14771;DHT22;7477;45.222;5.688;2023-07-31T05:44:51;17.00;99.90
14771;DHT22;7477;45.222;5.688;2023-07-31T05:48:10;17.00;99.90
14771;DHT22;7477;45.222;5.688;2023-07-31T05:51:30;16.90;99.90
14771;DHT22;7477;45.222;5.688;2023-07-31T05:54:49;16.90;99.90
14771;DHT22;7477;45.222;5.688;2023-07-31T05:58:08;16.80;99.90
14771;DHT22;7477;45.222;5.688;2023-07-31T06:01:27;16.90;99.90
14771;DHT22;7477;45.222;5.688;2023-07-31T06:04:46;16.90;99.90
14771;DHT22;7477;45.222;5.688;2023-07-31T06:08:05;16.90;99.90
14771;DHT22;7477;45.222;5.688;2023-07-31T06:11:25;16.90;99.90
14771;DHT22;7477;45.222;5.688;2023-07-31T06:14:44;16.90;99.90
14771;DHT22;7477;45.222;5.688;2023-07-31T06:18:03;16.90;99.90
14771;DHT22;7477;45.222;5.688;2023-07-31T06:21:23;16.90;99.90
14771;DHT22;7477;45.222;5.688;2023-07-31T06:24:42;16.80;99.90
14771;DHT22;7477;45.222;5.688;2023-07-31T06:28:02;16.80;99.90
14771;DHT22;7477;45.222;5.688;2023-07-31T06:31:21;16.90;99.90
14771;DHT22;7477;45.222;5.688;2023-07-31T06:34:42;16.90;99.90
14771;DHT22;7477;45.222;5.688;2023-07-31T06:38:01;16.90;99.90
14771;DHT22;7477;45.222;5.688;2023-07-31T06:41:21;16.80;99.90
14771;DHT22;7477;45.222;5.688;2023-07-31T06:44:40;16.90;99.90
14771;DHT22;7477;45.222;5.688;2023-07-31T06:47:59;16.80;99.90
14771;DHT22;7477;45.222;5.688;2023-07-31T06:51:20;16.80;99.90
14771;DHT22;7477;45.222;5.688;2023-07-31T06:54:40;16.80;99.90
14771;DHT22;7477;45.222;5.688;2023-07-31T06:57:59;16.80;99.90
14771;DHT22;7477;45.222;5.688;2023-07-31T07:01:18;16.80;99.90
14771;DHT22;7477;45.222;5.688;2023-07-31T07:04:37;16.80;99.90
14771;DHT22;7477;45.222;5.688;2023-07-31T07:07:57;16.80;99.90
14771;DHT22;7477;45.222;5.688;2023-07-31T07:11:16;16.80;99.90
14771;DHT22;7477;45.222;5.688;2023-07-31T07:14:35;16.90;99.90
14771;DHT22;7477;45.222;5.688;2023-07-31T07:17:54;17.10;99.90
14771;DHT22;7477;45.222;5.688;2023-07-31T07:21:13;17.20;99.90
14771;DHT22;7477;45.222;5.688;2023-07-31T07:24:35;17.30;99.90
14771;DHT22;7477;45.222;5.688;2023-07-31T07:27:54;17.40;99.90
14771;DHT22;7477;45.222;5.688;2023-07-31T07:31:14;17.50;99.90
14771;DHT22;7477;45.222;5.688;2023-07-31T07:34:33;17.70;99.90
14771;DHT22;7477;45.222;5.688;2023-07-31T07:37:52;17.80;99.90
14771;DHT22;7477;45.222;5.688;2023-07-31T07:41:12;17.90;99.90
14771;DHT22;7477;45.222;5.688;2023-07-31T07:44:31;18.00;99.90
14771;DHT22;7477;45.222;5.688;2023-07-31T07:47:51;18.00;99.90
14771;DHT22;7477;45.222;5.688;2023-07-31T07:51:10;18.10;99.90
14771;DHT22;7477;45.222;5.688;2023-07-31T07:54:30;18.20;99.90
14771;DHT22;7477;45.222;5.688;2023-07-31T07:57:49;18.30;99.90
14771;DHT22;7477;45.222;5.688;2023-07-31T08:01:09;18.50;99.90
14771;DHT22;7477;45.222;5.688;2023-07-31T08:04:28;18.50;99.90
14771;DHT22;7477;45.222;5.688;2023-07-31T08:07:48;18.50;99.90
14771;DHT22;7477;45.222;5.688;2023-07-31T08:11:07;18.60;99.90
14771;DHT22;7477;45.222;5.688;2023-07-31T08:14:26;18.60;99.90
14771;DHT22;7477;45.222;5.688;2023-07-31T08:17:54;18.70;99.90
14771;DHT22;7477;45.222;5.688;2023-07-31T08:21:13;18.70;99.90
14771;DHT22;7477;45.222;5.688;2023-07-31T08:24:32;18.70;99.90
14771;DHT22;7477;45.222;5.688;2023-07-31T08:27:51;18.70;99.90
14771;DHT22;7477;45.222;5.688;2023-07-31T08:31:11;18.90;99.90
14771;DHT22;7477;45.222;5.688;2023-07-31T08:34:30;18.80;99.90
14771;DHT22;7477;45.222;5.688;2023-07-31T08:37:50;18.80;99.90
14771;DHT22;7477;45.222;5.688;2023-07-31T08:41:09;18.90;99.90
14771;DHT22;7477;45.222;5.688;2023-07-31T08:44:30;18.90;99.90
14771;DHT22;7477;45.222;5.688;2023-07-31T08:47:51;18.90;99.20
14771;DHT22;7477;45.222;5.688;2023-07-31T08:51:11;18.90;99.60
14771;DHT22;7477;45.222;5.688;2023-07-31T08:54:30;19.00;99.40
14771;DHT22;7477;45.222;5.688;2023-07-31T08:57:52;19.00;99.00
14771;DHT22;7477;45.222;5.688;2023-07-31T09:01:15;19.10;98.70
14771;DHT22;7477;45.222;5.688;2023-07-31T09:04:34;19.10;99.00
14771;DHT22;7477;45.222;5.688;2023-07-31T09:07:56;19.30;98.90
14771;DHT22;7477;45.222;5.688;2023-07-31T09:11:16;19.30;99.00
14771;DHT22;7477;45.222;5.688;2023-07-31T09:14:37;19.30;98.80
14771;DHT22;7477;45.222;5.688;2023-07-31T09:18:00;19.40;99.10
14771;DHT22;7477;45.222;5.688;2023-07-31T09:21:20;19.40;98.50
14771;DHT22;7477;45.222;5.688;2023-07-31T09:24:39;19.40;98.20
14771;DHT22;7477;45.222;5.688;2023-07-31T09:28:16;19.40;98.30
14771;DHT22;7477;45.222;5.688;2023-07-31T09:31:43;19.40;98.40
14771;DHT22;7477;45.222;5.688;2023-07-31T09:38:38;19.60;98.60
14771;DHT22;7477;45.222;5.688;2023-07-31T09:41:57;19.60;98.10
14771;DHT22;7477;45.222;5.688;2023-07-31T09:45:18;19.50;98.30
14771;DHT22;7477;45.222;5.688;2023-07-31T09:48:38;19.50;98.20
14771;DHT22;7477;45.222;5.688;2023-07-31T09:51:58;19.50;98.10
14771;DHT22;7477;45.222;5.688;2023-07-31T09:55:18;19.60;98.40
14771;DHT22;7477;45.222;5.688;2023-07-31T09:58:38;19.80;98.80
14771;DHT22;7477;45.222;5.688;2023-07-31T10:01:57;19.80;98.10
14771;DHT22;7477;45.222;5.688;2023-07-31T10:05:17;19.80;97.60
14771;DHT22;7477;45.222;5.688;2023-07-31T10:08:37;19.80;97.50
14771;DHT22;7477;45.222;5.688;2023-07-31T10:12:00;19.80;97.10
14771;DHT22;7477;45.222;5.688;2023-07-31T10:15:21;19.90;97.70
14771;DHT22;7477;45.222;5.688;2023-07-31T10:18:41;20.00;97.90
14771;DHT22;7477;45.222;5.688;2023-07-31T10:22:03;19.90;97.90
14771;DHT22;7477;45.222;5.688;2023-07-31T10:25:22;20.10;98.30
14771;DHT22;7477;45.222;5.688;2023-07-31T10:28:44;20.10;98.20
14771;DHT22;7477;45.222;5.688;2023-07-31T10:32:07;20.10;98.10
14771;DHT22;7477;45.222;5.688;2023-07-31T10:35:29;20.10;98.00
14771;DHT22;7477;45.222;5.688;2023-07-31T10:38:49;20.10;97.00
14771;DHT22;7477;45.222;5.688;2023-07-31T10:42:13;20.20;97.30
14771;DHT22;7477;45.222;5.688;2023-07-31T10:45:42;20.20;97.80
14771;DHT22;7477;45.222;5.688;2023-07-31T10:49:03;20.20;97.30
14771;DHT22;7477;45.222;5.688;2023-07-31T10:52:22;20.10;97.90
14771;DHT22;7477;45.222;5.688;2023-07-31T10:55:46;20.20;98.00
14771;DHT22;7477;45.222;5.688;2023-07-31T10:59:06;20.20;97.80
14771;DHT22;7477;45.222;5.688;2023-07-31T11:02:28;20.30;97.90
14771;DHT22;7477;45.222;5.688;2023-07-31T11:06:00;20.50;96.90
14771;DHT22;7477;45.222;5.688;2023-07-31T11:09:24;20.60;97.00
14771;DHT22;7477;45.222;5.688;2023-07-31T11:12:46;20.60;96.70
14771;DHT22;7477;45.222;5.688;2023-07-31T11:16:06;20.70;96.50
14771;DHT22;7477;45.222;5.688;2023-07-31T11:19:25;20.70;96.80
14771;DHT22;7477;45.222;5.688;2023-07-31T11:22:44;20.70;97.40
14771;DHT22;7477;45.222;5.688;2023-07-31T11:26:05;20.70;97.70
14771;DHT22;7477;45.222;5.688;2023-07-31T11:29:27;20.70;97.80
14771;DHT22;7477;45.222;5.688;2023-07-31T11:32:48;20.70;97.90
14771;DHT22;7477;45.222;5.688;2023-07-31T11:36:18;20.70;97.20
14771;DHT22;7477;45.222;5.688;2023-07-31T11:39:37;20.60;97.80
14771;DHT22;7477;45.222;5.688;2023-07-31T11:43:04;20.80;97.80
14771;DHT22;7477;45.222;5.688;2023-07-31T11:46:24;21.00;97.50
14771;DHT22;7477;45.222;5.688;2023-07-31T11:49:43;21.00;97.30
14771;DHT22;7477;45.222;5.688;2023-07-31T11:53:07;20.90;97.30
14771;DHT22;7477;45.222;5.688;2023-07-31T11:56:28;21.00;97.50
14771;DHT22;7477;45.222;5.688;2023-07-31T11:59:47;21.00;97.50
14771;DHT22;7477;45.222;5.688;2023-07-31T12:03:07;21.00;97.20
14771;DHT22;7477;45.222;5.688;2023-07-31T12:06:36;21.00;97.50
14771;DHT22;7477;45.222;5.688;2023-07-31T12:09:55;21.20;97.80
14771;DHT22;7477;45.222;5.688;2023-07-31T12:13:24;21.40;97.90
14771;DHT22;7477;45.222;5.688;2023-07-31T12:16:43;21.40;98.50
14771;DHT22;7477;45.222;5.688;2023-07-31T12:20:04;21.50;98.20
14771;DHT22;7477;45.222;5.688;2023-07-31T12:23:31;21.50;98.00
14771;DHT22;7477;45.222;5.688;2023-07-31T12:26:50;21.50;98.00
14771;DHT22;7477;45.222;5.688;2023-07-31T12:30:32;21.60;97.90
14771;DHT22;7477;45.222;5.688;2023-07-31T12:33:53;21.70;97.40
14771;DHT22;7477;45.222;5.688;2023-07-31T12:37:14;21.90;96.80
14771;DHT22;7477;45.222;5.688;2023-07-31T12:40:35;21.70;96.90
14771;DHT22;7477;45.222;5.688;2023-07-31T12:43:54;21.80;96.60
14771;DHT22;7477;45.222;5.688;2023-07-31T12:47:14;21.90;96.30
14771;DHT22;7477;45.222;5.688;2023-07-31T12:50:34;21.80;96.30
14771;DHT22;7477;45.222;5.688;2023-07-31T12:53:55;21.70;96.20
14771;DHT22;7477;45.222;5.688;2023-07-31T12:57:14;21.60;96.40
14771;DHT22;7477;45.222;5.688;2023-07-31T13:00:33;21.60;96.20
14771;DHT22;7477;45.222;5.688;2023-07-31T13:03:52;21.80;94.80
14771;DHT22;7477;45.222;5.688;2023-07-31T13:07:12;21.90;95.80
14771;DHT22;7477;45.222;5.688;2023-07-31T13:10:31;21.80;96.30
14771;DHT22;7477;45.222;5.688;2023-07-31T13:13:53;21.90;95.80
14771;DHT22;7477;45.222;5.688;2023-07-31T13:17:12;22.00;95.40
14771;DHT22;7477;45.222;5.688;2023-07-31T13:20:31;22.00;95.40
14771;DHT22;7477;45.222;5.688;2023-07-31T13:23:50;22.20;93.80
14771;DHT22;7477;45.222;5.688;2023-07-31T13:27:10;23.10;92.50
14771;DHT22;7477;45.222;5.688;2023-07-31T13:30:29;23.90;91.10
14771;DHT22;7477;45.222;5.688;2023-07-31T13:33:48;24.30;89.30
14771;DHT22;7477;45.222;5.688;2023-07-31T13:37:08;24.40;88.90
14771;DHT22;7477;45.222;5.688;2023-07-31T13:40:27;24.40;88.50
14771;DHT22;7477;45.222;5.688;2023-07-31T13:43:46;24.70;87.10
14771;DHT22;7477;45.222;5.688;2023-07-31T13:47:06;24.80;86.70
14771;DHT22;7477;45.222;5.688;2023-07-31T13:50:26;24.80;85.50
14771;DHT22;7477;45.222;5.688;2023-07-31T13:53:46;25.10;84.20
14771;DHT22;7477;45.222;5.688;2023-07-31T13:57:05;25.00;83.90
14771;DHT22;7477;45.222;5.688;2023-07-31T14:00:25;25.40;82.30
14771;DHT22;7477;45.222;5.688;2023-07-31T14:03:44;25.70;79.50
14771;DHT22;7477;45.222;5.688;2023-07-31T14:07:04;25.90;78.20
14771;DHT22;7477;45.222;5.688;2023-07-31T14:10:23;26.10;77.20
14771;DHT22;7477;45.222;5.688;2023-07-31T14:13:42;26.20;75.70
14771;DHT22;7477;45.222;5.688;2023-07-31T14:17:01;26.20;74.00
14771;DHT22;7477;45.222;5.688;2023-07-31T14:20:21;26.40;73.60
14771;DHT22;7477;45.222;5.688;2023-07-31T14:23:41;26.60;74.00
14771;DHT22;7477;45.222;5.688;2023-07-31T14:27:00;26.60;74.50
14771;DHT22;7477;45.222;5.688;2023-07-31T14:30:25;26.80;71.80
14771;DHT22;7477;45.222;5.688;2023-07-31T14:33:44;26.80;70.80
14771;DHT22;7477;45.222;5.688;2023-07-31T14:37:04;26.40;69.50
14771;DHT22;7477;45.222;5.688;2023-07-31T14:40:23;27.30;70.10
14771;DHT22;7477;45.222;5.688;2023-07-31T14:43:43;27.30;68.60
14771;DHT22;7477;45.222;5.688;2023-07-31T14:47:02;27.40;68.40
14771;DHT22;7477;45.222;5.688;2023-07-31T14:50:21;27.60;66.40
14771;DHT22;7477;45.222;5.688;2023-07-31T14:53:40;27.70;66.50
14771;DHT22;7477;45.222;5.688;2023-07-31T14:56:59;27.60;66.80
14771;DHT22;7477;45.222;5.688;2023-07-31T15:00:19;28.00;64.20
14771;DHT22;7477;45.222;5.688;2023-07-31T15:03:38;28.00;65.30
14771;DHT22;7477;45.222;5.688;2023-07-31T15:06:58;28.20;64.80
14771;DHT22;7477;45.222;5.688;2023-07-31T15:10:17;28.20;64.10
14771;DHT22;7477;45.222;5.688;2023-07-31T15:13:36;28.40;62.30
14771;DHT22;7477;45.222;5.688;2023-07-31T15:16:55;28.50;62.50
14771;DHT22;7477;45.222;5.688;2023-07-31T15:20:14;28.60;62.00
14771;DHT22;7477;45.222;5.688;2023-07-31T15:23:34;28.50;61.50
14771;DHT22;7477;45.222;5.688;2023-07-31T15:26:53;28.60;61.60
14771;DHT22;7477;45.222;5.688;2023-07-31T15:30:13;28.70;62.10
14771;DHT22;7477;45.222;5.688;2023-07-31T15:33:32;28.90;63.90
14771;DHT22;7477;45.222;5.688;2023-07-31T15:36:51;28.90;63.80
14771;DHT22;7477;45.222;5.688;2023-07-31T15:40:11;29.00;63.30
14771;DHT22;7477;45.222;5.688;2023-07-31T15:43:30;29.20;61.60
14771;DHT22;7477;45.222;5.688;2023-07-31T15:46:50;29.30;62.40
14771;DHT22;7477;45.222;5.688;2023-07-31T15:50:09;29.30;62.50
14771;DHT22;7477;45.222;5.688;2023-07-31T15:53:29;29.40;61.20
14771;DHT22;7477;45.222;5.688;2023-07-31T15:56:49;29.50;60.40
14771;DHT22;7477;45.222;5.688;2023-07-31T16:00:09;29.50;60.10
14771;DHT22;7477;45.222;5.688;2023-07-31T16:03:28;29.70;60.30
14771;DHT22;7477;45.222;5.688;2023-07-31T16:06:47;29.80;59.70
14771;DHT22;7477;45.222;5.688;2023-07-31T16:10:07;29.70;59.70
14771;DHT22;7477;45.222;5.688;2023-07-31T16:13:26;29.70;59.70
14771;DHT22;7477;45.222;5.688;2023-07-31T16:16:45;29.80;59.00
14771;DHT22;7477;45.222;5.688;2023-07-31T16:20:06;29.90;59.50
14771;DHT22;7477;45.222;5.688;2023-07-31T16:23:25;29.90;59.70
14771;DHT22;7477;45.222;5.688;2023-07-31T16:26:44;29.90;58.20
14771;DHT22;7477;45.222;5.688;2023-07-31T16:30:04;29.80;59.00
14771;DHT22;7477;45.222;5.688;2023-07-31T16:33:23;29.60;59.60
14771;DHT22;7477;45.222;5.688;2023-07-31T16:36:42;29.40;60.10
14771;DHT22;7477;45.222;5.688;2023-07-31T16:40:02;28.90;60.10
14771;DHT22;7477;45.222;5.688;2023-07-31T16:43:22;28.60;61.00
14771;DHT22;7477;45.222;5.688;2023-07-31T16:46:41;28.30;61.60
14771;DHT22;7477;45.222;5.688;2023-07-31T16:50:00;28.20;61.40
14771;DHT22;7477;45.222;5.688;2023-07-31T16:53:20;28.10;61.00
14771;DHT22;7477;45.222;5.688;2023-07-31T16:56:39;28.00;63.20
14771;DHT22;7477;45.222;5.688;2023-07-31T16:59:58;27.90;63.70
14771;DHT22;7477;45.222;5.688;2023-07-31T17:03:17;27.70;64.40
14771;DHT22;7477;45.222;5.688;2023-07-31T17:06:36;27.70;63.30
14771;DHT22;7477;45.222;5.688;2023-07-31T17:09:56;27.70;62.90
14771;DHT22;7477;45.222;5.688;2023-07-31T17:13:16;27.60;62.00
14771;DHT22;7477;45.222;5.688;2023-07-31T17:16:35;27.40;64.10
14771;DHT22;7477;45.222;5.688;2023-07-31T17:19:54;27.50;62.40
14771;DHT22;7477;45.222;5.688;2023-07-31T17:23:14;27.60;61.80
14771;DHT22;7477;45.222;5.688;2023-07-31T17:26:33;27.50;61.70
14771;DHT22;7477;45.222;5.688;2023-07-31T17:29:52;27.40;62.90
14771;DHT22;7477;45.222;5.688;2023-07-31T17:33:11;27.40;62.90
14771;DHT22;7477;45.222;5.688;2023-07-31T17:36:30;27.30;64.00
14771;DHT22;7477;45.222;5.688;2023-07-31T17:39:51;27.20;64.20
14771;DHT22;7477;45.222;5.688;2023-07-31T17:43:10;27.20;64.60
14771;DHT22;7477;45.222;5.688;2023-07-31T17:46:29;27.10;64.30
14771;DHT22;7477;45.222;5.688;2023-07-31T17:49:48;27.00;64.70
14771;DHT22;7477;45.222;5.688;2023-07-31T17:53:08;27.00;64.30
14771;DHT22;7477;45.222;5.688;2023-07-31T17:56:27;26.90;65.00
14771;DHT22;7477;45.222;5.688;2023-07-31T17:59:47;26.90;65.30
14771;DHT22;7477;45.222;5.688;2023-07-31T18:03:07;26.70;68.20
14771;DHT22;7477;45.222;5.688;2023-07-31T18:06:31;26.60;67.10
14771;DHT22;7477;45.222;5.688;2023-07-31T18:09:53;26.60;66.40
14771;DHT22;7477;45.222;5.688;2023-07-31T18:13:13;26.50;66.50
14771;DHT22;7477;45.222;5.688;2023-07-31T18:16:33;26.40;66.60
14771;DHT22;7477;45.222;5.688;2023-07-31T18:19:52;26.30;68.10
14771;DHT22;7477;45.222;5.688;2023-07-31T18:23:11;26.20;68.40
14771;DHT22;7477;45.222;5.688;2023-07-31T18:26:30;26.10;70.30
14771;DHT22;7477;45.222;5.688;2023-07-31T18:29:50;26.10;72.10
14771;DHT22;7477;45.222;5.688;2023-07-31T18:33:09;26.00;73.10
14771;DHT22;7477;45.222;5.688;2023-07-31T18:36:28;25.80;74.10
14771;DHT22;7477;45.222;5.688;2023-07-31T18:39:48;25.80;74.30
14771;DHT22;7477;45.222;5.688;2023-07-31T18:43:08;25.80;74.70
14771;DHT22;7477;45.222;5.688;2023-07-31T18:46:27;25.70;75.00
14771;DHT22;7477;45.222;5.688;2023-07-31T18:49:46;25.60;75.40
14771;DHT22;7477;45.222;5.688;2023-07-31T18:53:05;25.50;75.40
14771;DHT22;7477;45.222;5.688;2023-07-31T18:56:24;25.50;75.30
14771;DHT22;7477;45.222;5.688;2023-07-31T18:59:43;25.40;75.40
14771;DHT22;7477;45.222;5.688;2023-07-31T19:03:02;25.40;75.90
14771;DHT22;7477;45.222;5.688;2023-07-31T19:06:22;25.10;76.20
14771;DHT22;7477;45.222;5.688;2023-07-31T19:09:41;25.00;76.80
14771;DHT22;7477;45.222;5.688;2023-07-31T19:13:00;24.90;76.70
14771;DHT22;7477;45.222;5.688;2023-07-31T19:16:21;25.10;76.70
14771;DHT22;7477;45.222;5.688;2023-07-31T19:19:40;24.80;76.70
14771;DHT22;7477;45.222;5.688;2023-07-31T19:23:00;24.80;76.80
14771;DHT22;7477;45.222;5.688;2023-07-31T19:26:19;24.70;76.70
14771;DHT22;7477;45.222;5.688;2023-07-31T19:29:38;24.80;76.60
14771;DHT22;7477;45.222;5.688;2023-07-31T19:32:57;25.00;76.50
14771;DHT22;7477;45.222;5.688;2023-07-31T19:36:16;24.70;76.00
14771;DHT22;7477;45.222;5.688;2023-07-31T19:39:36;24.40;74.90
14771;DHT22;7477;45.222;5.688;2023-07-31T19:42:55;24.30;74.30
14771;DHT22;7477;45.222;5.688;2023-07-31T19:46:16;24.30;74.50
14771;DHT22;7477;45.222;5.688;2023-07-31T19:49:36;24.30;73.80
14771;DHT22;7477;45.222;5.688;2023-07-31T19:52:55;24.30;74.20
14771;DHT22;7477;45.222;5.688;2023-07-31T19:56:14;24.30;72.70
14771;DHT22;7477;45.222;5.688;2023-07-31T19:59:33;24.20;73.50
14771;DHT22;7477;45.222;5.688;2023-07-31T20:02:53;24.20;74.10
14771;DHT22;7477;45.222;5.688;2023-07-31T20:06:12;24.30;74.90
14771;DHT22;7477;45.222;5.688;2023-07-31T20:09:31;24.30;75.50
14771;DHT22;7477;45.222;5.688;2023-07-31T20:12:50;24.40;75.70
14771;DHT22;7477;45.222;5.688;2023-07-31T20:16:10;24.50;76.40
14771;DHT22;7477;45.222;5.688;2023-07-31T20:19:29;24.50;77.00
14771;DHT22;7477;45.222;5.688;2023-07-31T20:22:50;24.50;77.20
14771;DHT22;7477;45.222;5.688;2023-07-31T20:26:09;24.40;77.50
14771;DHT22;7477;45.222;5.688;2023-07-31T20:29:28;24.20;76.60
14771;DHT22;7477;45.222;5.688;2023-07-31T20:32:48;24.20;77.00
14771;DHT22;7477;45.222;5.688;2023-07-31T20:36:07;24.20;77.50
14771;DHT22;7477;45.222;5.688;2023-07-31T20:39:27;24.20;77.60
14771;DHT22;7477;45.222;5.688;2023-07-31T20:42:57;24.40;80.90
14771;DHT22;7477;45.222;5.688;2023-07-31T20:46:16;24.40;78.70
14771;DHT22;7477;45.222;5.688;2023-07-31T20:49:35;24.10;79.50
14771;DHT22;7477;45.222;5.688;2023-07-31T20:52:54;24.10;80.20
14771;DHT22;7477;45.222;5.688;2023-07-31T20:56:14;24.20;80.10
14771;DHT22;7477;45.222;5.688;2023-07-31T20:59:34;24.00;80.20
14771;DHT22;7477;45.222;5.688;2023-07-31T21:02:53;23.60;80.40
14771;DHT22;7477;45.222;5.688;2023-07-31T21:06:12;23.60;80.20
14771;DHT22;7477;45.222;5.688;2023-07-31T21:09:35;23.50;81.60
14771;DHT22;7477;45.222;5.688;2023-07-31T21:12:55;23.50;81.40
14771;DHT22;7477;45.222;5.688;2023-07-31T21:16:15;23.50;81.60
14771;DHT22;7477;45.222;5.688;2023-07-31T21:19:34;23.60;80.90
14771;DHT22;7477;45.222;5.688;2023-07-31T21:22:54;23.70;79.00
14771;DHT22;7477;45.222;5.688;2023-07-31T21:26:13;23.70;78.80
14771;DHT22;7477;45.222;5.688;2023-07-31T21:29:32;23.80;81.00
14771;DHT22;7477;45.222;5.688;2023-07-31T21:32:52;24.10;79.40
14771;DHT22;7477;45.222;5.688;2023-07-31T21:36:11;23.30;78.10